createdAt,value
2019-04-07T00:00:39.434Z,9.70
2019-04-07T00:03:08.446Z,9.70
2019-04-07T00:05:37.760Z,9.70
2019-04-07T00:08:06.754Z,9.70
2019-04-07T00:10:35.700Z,9.60
2019-04-07T00:13:05.198Z,9.60
2019-04-07T00:15:34.481Z,9.60
2019-04-07T00:18:03.413Z,9.50
2019-04-07T00:20:32.315Z,9.50
2019-04-07T00:23:01.117Z,9.50
2019-04-07T00:25:29.991Z,9.40
2019-04-07T00:27:58.880Z,9.40
2019-04-07T00:30:27.745Z,9.30
2019-04-07T00:32:56.561Z,9.40
2019-04-07T00:35:30.524Z,9.30
2019-04-07T00:37:55.982Z,9.20
2019-04-07T00:40:24.932Z,9.40
2019-04-07T00:42:56.805Z,9.30
2019-04-07T00:45:26.285Z,9.20
2019-04-07T00:47:55.221Z,9.30
2019-04-07T00:50:24.769Z,9.40
2019-04-07T00:52:53.586Z,9.30
2019-04-07T00:55:25.573Z,9.20
2019-04-07T00:57:54.537Z,9.10
2019-04-07T01:00:31.025Z,9.10
2019-04-07T01:02:59.903Z,9.40
2019-04-07T01:05:36.716Z,9.00
2019-04-07T01:08:03.138Z,8.90
2019-04-07T01:10:32.681Z,8.70
2019-04-07T01:13:01.673Z,8.40
2019-04-07T01:15:30.576Z,8.20
2019-04-07T01:17:59.970Z,7.90
2019-04-07T01:20:29.410Z,7.70
2019-04-07T01:22:58.402Z,7.80
2019-04-07T01:25:27.206Z,7.80
2019-04-07T01:27:56.584Z,7.20
2019-04-07T01:30:25.978Z,7.00
2019-04-07T01:32:54.959Z,6.70
2019-04-07T01:35:23.855Z,6.60
2019-04-07T01:37:52.738Z,6.30
2019-04-07T01:40:21.529Z,6.20
2019-04-07T01:43:11.316Z,6.10
2019-04-07T01:45:58.696Z,5.80
2019-04-07T01:48:53.270Z,6.00
2019-04-07T01:51:42.216Z,5.90
2019-04-07T01:54:28.933Z,5.70
2019-04-07T01:57:08.386Z,5.60
2019-04-07T02:00:03.577Z,5.50
2019-04-07T02:02:52.015Z,5.70
2019-04-07T02:05:57.655Z,5.30
2019-04-07T02:08:35.117Z,5.20
2019-04-07T02:11:23.279Z,5.20
2019-04-07T02:14:07.068Z,5.10
2019-04-07T02:16:49.964Z,5.20
2019-04-07T02:19:32.786Z,5.10
2019-04-07T02:22:33.169Z,5.30
2019-04-07T02:25:17.400Z,5.20
2019-04-07T02:28:14.641Z,5.10
2019-04-07T02:31:11.599Z,5.20
2019-04-07T02:33:48.366Z,5.10
2019-04-07T02:36:43.200Z,5.50
2019-04-07T02:39:34.686Z,5.40
2019-04-07T02:42:25.762Z,5.50
2019-04-07T02:45:13.064Z,5.50
2019-04-07T02:48:05.120Z,5.60
2019-04-07T02:50:48.773Z,5.50
2019-04-07T02:53:28.848Z,5.40
2019-04-07T02:56:13.367Z,5.40
2019-04-07T02:58:51.436Z,5.50
2019-04-07T03:01:30.010Z,5.60
2019-04-07T03:04:07.501Z,5.50
2019-04-07T03:06:49.785Z,5.40
2019-04-07T03:09:43.957Z,5.60
2019-04-07T03:12:33.095Z,5.70
2019-04-07T03:15:21.616Z,5.70
2019-04-07T03:18:10.239Z,5.90
2019-04-07T03:20:51.891Z,5.60
2019-04-07T03:23:55.208Z,5.60
2019-04-07T03:26:46.613Z,5.50
2019-04-07T03:29:40.452Z,5.40
2019-04-07T03:32:22.350Z,5.60
2019-04-07T03:35:09.938Z,5.20
2019-04-07T03:37:54.721Z,5.00
2019-04-07T03:40:31.604Z,5.10
2019-04-07T03:43:09.982Z,5.10
2019-04-07T03:46:00.291Z,4.80
2019-04-07T03:48:33.825Z,5.00
2019-04-07T03:51:20.447Z,4.80
2019-04-07T03:54:10.155Z,4.70
2019-04-07T03:57:04.806Z,4.80
2019-04-07T04:00:02.216Z,4.90
2019-04-07T04:02:51.087Z,4.70
2019-04-07T04:05:37.317Z,4.70
2019-04-07T04:08:12.337Z,4.90
2019-04-07T04:10:56.657Z,4.70
2019-04-07T04:13:34.509Z,4.90
2019-04-07T04:16:16.613Z,4.90
2019-04-07T04:18:45.713Z,4.70
2019-04-07T04:21:15.365Z,4.80
2019-04-07T04:23:44.908Z,5.00
2019-04-07T04:26:15.131Z,4.80
2019-04-07T04:28:44.323Z,4.90
2019-04-07T04:31:14.017Z,4.60
2019-04-07T04:33:43.005Z,4.60
2019-04-07T04:36:11.801Z,4.30
2019-04-07T04:38:40.814Z,4.30
2019-04-07T04:41:10.083Z,4.60
2019-04-07T04:43:39.294Z,4.70
2019-04-07T04:46:10.702Z,4.40
2019-04-07T04:48:38.937Z,4.60
2019-04-07T04:51:08.511Z,4.90
2019-04-07T04:53:38.147Z,4.80
2019-04-07T04:56:07.638Z,4.90
2019-04-07T04:58:36.609Z,4.90
2019-04-07T05:01:06.254Z,4.80
2019-04-07T05:03:36.145Z,4.70
2019-04-07T05:06:05.252Z,4.80
2019-04-07T05:08:39.851Z,4.80
2019-04-07T05:11:09.129Z,4.90
2019-04-07T05:13:38.505Z,4.70
2019-04-07T05:16:08.238Z,4.80
2019-04-07T05:18:37.192Z,4.80
2019-04-07T05:21:06.061Z,5.10
2019-04-07T05:23:34.934Z,5.30
2019-04-07T05:26:04.538Z,5.40
2019-04-07T05:28:36.797Z,5.50
2019-04-07T05:31:04.460Z,5.80
2019-04-07T05:33:33.370Z,6.10
2019-04-07T05:36:02.241Z,6.40
2019-04-07T05:38:31.169Z,6.20
2019-04-07T05:41:00.317Z,6.10
2019-04-07T05:43:29.200Z,6.70
2019-04-07T05:45:59.186Z,7.10
2019-04-07T05:48:28.182Z,7.20
2019-04-07T05:50:59.905Z,7.50
2019-04-07T05:53:27.765Z,7.90
2019-04-07T05:55:56.681Z,8.00
2019-04-07T05:58:25.472Z,8.30
2019-04-07T06:00:54.731Z,8.60
2019-04-07T06:03:23.678Z,8.90
2019-04-07T06:05:52.847Z,9.00
2019-04-07T06:08:29.386Z,8.90
2019-04-07T06:10:57.510Z,9.20
2019-04-07T06:13:23.606Z,9.40
2019-04-07T06:15:53.231Z,9.50
2019-04-07T06:18:22.806Z,9.70
2019-04-07T06:20:52.035Z,9.80
2019-04-07T06:23:23.423Z,10.00
2019-04-07T06:25:52.259Z,10.10
2019-04-07T06:28:22.743Z,10.30
2019-04-07T06:30:52.085Z,10.40
2019-04-07T06:33:21.052Z,10.50
2019-04-07T06:35:49.971Z,10.60
2019-04-07T06:38:30.083Z,10.60
2019-04-07T06:40:50.821Z,10.80
2019-04-07T06:43:20.318Z,11.00
2019-04-07T06:45:56.480Z,11.10
2019-04-07T06:48:25.521Z,11.20
2019-04-07T06:51:11.188Z,11.30
2019-04-07T06:54:01.252Z,11.40
2019-04-07T06:56:53.783Z,11.50
2019-04-07T06:59:34.196Z,11.70
2019-04-07T07:02:22.443Z,11.80
2019-04-07T07:05:25.839Z,11.90
2019-04-07T07:08:19.370Z,12.00
2019-04-07T07:10:58.758Z,12.10
2019-04-07T07:13:55.695Z,12.20
2019-04-07T07:16:32.240Z,12.30
2019-04-07T07:19:29.400Z,12.50
2019-04-07T07:22:16.604Z,12.70
2019-04-07T07:24:47.205Z,12.90
2019-04-07T07:27:16.428Z,13.00
2019-04-07T07:29:47.297Z,13.00
2019-04-07T07:32:16.969Z,13.20
2019-04-07T07:34:46.624Z,13.20
2019-04-07T07:37:15.841Z,13.30
2019-04-07T07:39:45.186Z,13.40
2019-04-07T07:42:14.889Z,13.40
2019-04-07T07:44:43.913Z,13.50
2019-04-07T07:47:13.341Z,13.50
2019-04-07T07:49:42.515Z,13.60
2019-04-07T07:52:11.624Z,13.70
2019-04-07T07:54:41.062Z,13.70
2019-04-07T07:57:09.969Z,13.80
2019-04-07T07:59:39.641Z,13.90
2019-04-07T08:02:09.816Z,14.00
2019-04-07T08:04:38.882Z,14.10
2019-04-07T08:07:09.005Z,14.10
2019-04-07T08:09:39.321Z,14.00
2019-04-07T08:12:08.371Z,14.10
2019-04-07T08:14:37.264Z,14.10
2019-04-07T08:17:07.090Z,14.10
2019-04-07T08:19:40.462Z,14.20
2019-04-07T08:22:07.999Z,14.20
2019-04-07T08:24:37.369Z,14.10
2019-04-07T08:27:06.356Z,14.10
2019-04-07T08:29:37.166Z,14.20
2019-04-07T08:32:06.537Z,14.30
2019-04-07T08:34:36.142Z,14.40
2019-04-07T08:37:05.917Z,14.30
2019-04-07T08:39:36.218Z,14.20
2019-04-07T08:42:09.822Z,14.10
2019-04-07T08:44:36.776Z,14.00
2019-04-07T08:47:06.610Z,13.90
2019-04-07T08:49:36.451Z,14.00
2019-04-07T08:52:09.764Z,14.00
2019-04-07T08:54:36.965Z,14.00
2019-04-07T08:57:06.091Z,14.00
2019-04-07T08:59:40.534Z,13.90
2019-04-07T09:02:12.144Z,13.90
2019-04-07T09:04:47.341Z,14.00
2019-04-07T09:07:22.569Z,14.20
2019-04-07T09:09:51.398Z,14.10
2019-04-07T09:12:20.702Z,13.90
2019-04-07T09:14:50.197Z,13.80
2019-04-07T09:17:40.498Z,13.70
2019-04-07T09:20:23.763Z,13.80
2019-04-07T09:23:02.007Z,13.90
2019-04-07T09:25:41.063Z,14.20
2019-04-07T09:28:28.799Z,14.50
2019-04-07T09:31:16.445Z,14.80
2019-04-07T09:34:03.361Z,14.80
2019-04-07T09:36:38.961Z,15.00
2019-04-07T09:39:56.280Z,15.00
2019-04-07T09:42:38.085Z,15.20
2019-04-07T09:45:22.769Z,15.30
2019-04-07T09:48:02.144Z,15.00
2019-04-07T09:50:44.062Z,14.80
2019-04-07T09:53:22.987Z,14.70
2019-04-07T09:56:20.210Z,14.90
2019-04-07T09:59:01.800Z,15.10
2019-04-07T10:01:50.837Z,15.40
2019-04-07T10:04:31.698Z,15.40
2019-04-07T10:07:15.121Z,15.20
2019-04-07T10:10:12.438Z,15.30
2019-04-07T10:13:03.858Z,15.30
2019-04-07T10:15:49.662Z,15.40
2019-04-07T10:18:36.890Z,15.50
2019-04-07T10:21:13.295Z,15.70
2019-04-07T10:23:50.872Z,15.80
2019-04-07T10:26:41.989Z,15.80
2019-04-07T10:29:39.797Z,15.50
2019-04-07T10:32:25.571Z,15.60
2019-04-07T10:35:16.800Z,15.70
2019-04-07T10:38:02.077Z,15.50
2019-04-07T10:40:47.954Z,15.50
2019-04-07T10:43:36.479Z,15.30
2019-04-07T10:46:16.851Z,15.50
2019-04-07T10:49:09.241Z,15.70
2019-04-07T10:51:53.739Z,15.90
2019-04-07T10:54:38.173Z,16.10
2019-04-07T10:57:32.291Z,16.10
2019-04-07T11:00:24.030Z,16.10
2019-04-07T11:03:11.060Z,15.90
2019-04-07T11:05:55.243Z,15.70
2019-04-07T11:08:33.856Z,15.80
2019-04-07T11:11:22.372Z,15.90
2019-04-07T11:14:23.807Z,16.10
2019-04-07T11:17:06.539Z,15.80
2019-04-07T11:19:44.704Z,15.40
2019-04-07T11:22:36.873Z,15.10
2019-04-07T11:25:38.464Z,14.80
2019-04-07T11:28:39.024Z,14.70
2019-04-07T11:31:21.735Z,14.60
2019-04-07T11:34:20.280Z,14.50
2019-04-07T11:37:17.898Z,14.50
2019-04-07T11:39:54.548Z,14.70
2019-04-07T11:42:46.065Z,14.90
2019-04-07T11:45:56.440Z,15.30
2019-04-07T11:48:26.044Z,15.60
2019-04-07T11:51:18.469Z,16.30
2019-04-07T11:54:08.719Z,16.70
2019-04-07T11:56:53.508Z,16.90
2019-04-07T11:59:41.432Z,17.00
2019-04-07T12:02:24.501Z,17.00
2019-04-07T12:05:11.753Z,16.90
2019-04-07T12:08:05.032Z,16.60
2019-04-07T12:10:58.518Z,16.50
2019-04-07T12:13:29.637Z,16.60
2019-04-07T12:16:13.567Z,16.60
2019-04-07T12:19:00.159Z,16.80
2019-04-07T12:21:37.443Z,16.70
2019-04-07T12:24:18.844Z,16.50
2019-04-07T12:27:01.985Z,16.30
2019-04-07T12:29:46.059Z,16.50
2019-04-07T12:32:35.953Z,16.70
2019-04-07T12:35:23.623Z,16.80
2019-04-07T12:38:01.605Z,16.80
2019-04-07T12:40:40.244Z,16.70
2019-04-07T12:43:15.558Z,16.80
2019-04-07T12:45:49.493Z,16.80
2019-04-07T12:48:30.681Z,16.80
2019-04-07T12:51:19.873Z,16.80
2019-04-07T12:54:08.172Z,16.90
2019-04-07T12:56:54.742Z,16.90
2019-04-07T12:59:49.402Z,16.90
2019-04-07T13:02:34.891Z,16.90
2019-04-07T13:05:10.992Z,16.90
2019-04-07T13:07:54.308Z,17.20
2019-04-07T13:10:32.505Z,17.30
2019-04-07T13:13:20.236Z,17.40
2019-04-07T13:16:26.328Z,17.40
2019-04-07T13:19:27.486Z,17.40
2019-04-07T13:22:04.288Z,17.40
2019-04-07T13:24:51.397Z,17.40
2019-04-07T13:27:35.228Z,17.40
2019-04-07T13:30:10.602Z,17.50
2019-04-07T13:32:50.407Z,17.60
2019-04-07T13:35:47.696Z,17.50
2019-04-07T13:38:32.864Z,17.60
2019-04-07T13:41:20.318Z,17.30
2019-04-07T13:44:07.760Z,17.10
2019-04-07T13:46:56.125Z,16.70
2019-04-07T13:49:47.220Z,16.80
2019-04-07T13:52:29.016Z,17.20
2019-04-07T13:55:24.097Z,17.40
2019-04-07T13:58:08.257Z,17.50
2019-04-07T14:00:57.344Z,17.60
2019-04-07T14:03:35.899Z,17.50
2019-04-07T14:06:14.949Z,17.60
2019-04-07T14:09:05.666Z,17.40
2019-04-07T14:12:04.794Z,17.30
2019-04-07T14:14:33.721Z,17.20
2019-04-07T14:17:30.864Z,17.20
2019-04-07T14:20:08.948Z,17.10
2019-04-07T14:23:15.152Z,17.20
2019-04-07T14:26:01.308Z,16.90
2019-04-07T14:28:50.061Z,16.60
2019-04-07T14:31:33.584Z,16.10
2019-04-07T14:34:40.227Z,16.10
2019-04-07T14:37:21.792Z,16.20
2019-04-07T14:40:18.697Z,16.40
2019-04-07T14:43:07.092Z,16.60
2019-04-07T14:45:51.498Z,16.90
2019-04-07T14:48:39.054Z,17.00
2019-04-07T14:51:27.278Z,16.80
2019-04-07T14:54:12.591Z,16.70
2019-04-07T14:56:50.614Z,16.60
2019-04-07T14:59:29.587Z,16.80
2019-04-07T15:02:00.867Z,16.80
2019-04-07T15:04:34.620Z,17.00
2019-04-07T15:07:17.257Z,17.00
2019-04-07T15:09:52.427Z,17.10
2019-04-07T15:12:34.915Z,16.90
2019-04-07T15:15:08.410Z,16.80
2019-04-07T15:17:36.973Z,16.70
2019-04-07T15:20:07.428Z,16.80
2019-04-07T15:22:36.570Z,16.70
2019-04-07T15:25:07.632Z,16.50
2019-04-07T15:27:36.946Z,16.40
2019-04-07T15:30:07.570Z,16.30
2019-04-07T15:32:36.470Z,16.30
2019-04-07T15:35:06.183Z,16.20
2019-04-07T15:37:36.025Z,16.10
2019-04-07T15:40:07.256Z,16.00
2019-04-07T15:42:41.803Z,15.90
2019-04-07T15:45:10.588Z,15.80
2019-04-07T15:47:39.280Z,15.80
2019-04-07T15:50:09.628Z,15.70
2019-04-07T15:52:42.155Z,15.70
2019-04-07T15:55:11.470Z,15.60
2019-04-07T15:57:40.728Z,15.50
2019-04-07T16:00:10.057Z,15.40
2019-04-07T16:02:42.813Z,15.30
2019-04-07T16:05:10.518Z,15.20
2019-04-07T16:07:39.639Z,15.20
2019-04-07T16:10:08.855Z,15.20
2019-04-07T16:12:44.035Z,15.30
2019-04-07T16:15:09.564Z,15.50
2019-04-07T16:17:38.777Z,15.60
2019-04-07T16:20:19.789Z,15.60
2019-04-07T16:22:40.116Z,15.50
2019-04-07T16:25:11.206Z,15.40
2019-04-07T16:27:40.066Z,15.30
2019-04-07T16:30:09.818Z,15.20
2019-04-07T16:32:39.146Z,15.10
2019-04-07T16:35:12.926Z,14.90
2019-04-07T16:37:40.184Z,14.80
2019-04-07T16:40:11.457Z,14.70
2019-04-07T16:42:40.013Z,14.60
2019-04-07T16:45:12.512Z,14.40
2019-04-07T16:47:39.637Z,14.30
2019-04-07T16:50:09.288Z,14.20
2019-04-07T16:52:38.666Z,14.10
2019-04-07T16:55:13.684Z,14.10
2019-04-07T16:57:40.677Z,14.00
2019-04-07T17:00:14.300Z,13.80
2019-04-07T17:02:44.743Z,13.80
2019-04-07T17:05:14.187Z,13.70
2019-04-07T17:07:46.440Z,13.60
2019-04-07T17:10:14.536Z,13.60
2019-04-07T17:12:44.014Z,13.50
2019-04-07T17:15:13.583Z,13.40
2019-04-07T17:17:43.448Z,13.30
2019-04-07T17:20:13.510Z,13.30
2019-04-07T17:22:45.914Z,13.20
2019-04-07T17:25:14.159Z,13.10
2019-04-07T17:27:43.719Z,13.00
2019-04-07T17:30:14.828Z,12.90
2019-04-07T17:32:44.603Z,12.90
2019-04-07T17:35:17.199Z,12.80
2019-04-07T17:37:47.332Z,12.70
2019-04-07T17:40:18.556Z,12.60
2019-04-07T17:42:55.190Z,12.50
2019-04-07T17:45:42.960Z,12.40
2019-04-07T17:48:37.518Z,12.30
2019-04-07T17:51:16.582Z,12.10
2019-04-07T17:54:02.620Z,11.90
2019-04-07T17:57:09.941Z,11.60
2019-04-07T17:59:58.252Z,11.30
2019-04-07T18:02:43.154Z,11.10
2019-04-07T18:05:22.054Z,10.90
2019-04-07T18:08:01.834Z,10.80
2019-04-07T18:10:45.191Z,10.60
2019-04-07T18:13:46.019Z,10.30
2019-04-07T18:16:28.841Z,10.10
2019-04-07T18:19:13.010Z,9.90
2019-04-07T18:22:22.162Z,9.70
2019-04-07T18:25:02.753Z,9.50
2019-04-07T18:27:48.448Z,9.40
2019-04-07T18:30:30.506Z,9.40
2019-04-07T18:33:22.827Z,9.30
2019-04-07T18:36:05.659Z,9.20
2019-04-07T18:39:04.444Z,9.00
2019-04-07T18:42:04.116Z,8.90
2019-04-07T18:44:52.078Z,8.90
2019-04-07T18:47:57.118Z,8.70
2019-04-07T18:50:38.445Z,8.50
2019-04-07T18:53:14.612Z,8.30
2019-04-07T18:56:22.291Z,8.30
2019-04-07T18:59:20.215Z,8.20
2019-04-07T19:02:11.900Z,7.90
2019-04-07T19:04:46.331Z,7.80
2019-04-07T19:07:45.890Z,7.50
2019-04-07T19:10:36.698Z,7.40
2019-04-07T19:13:17.373Z,6.90
2019-04-07T19:16:19.540Z,7.10
2019-04-07T19:19:07.107Z,7.10
2019-04-07T19:21:55.674Z,7.00
2019-04-07T19:24:55.935Z,6.90
2019-04-07T19:27:39.455Z,6.90
2019-04-07T19:30:48.621Z,7.20
2019-04-07T19:33:35.636Z,7.10
2019-04-07T19:36:22.952Z,6.90
2019-04-07T19:39:11.128Z,7.20
2019-04-07T19:41:53.998Z,6.90
2019-04-07T19:44:38.587Z,6.90
2019-04-07T19:47:11.997Z,6.80
2019-04-07T19:49:52.958Z,6.80
2019-04-07T19:52:36.245Z,6.50
2019-04-07T19:55:26.341Z,6.70
2019-04-07T19:58:17.697Z,6.60
2019-04-07T20:01:03.322Z,6.70
2019-04-07T20:03:51.755Z,6.70
2019-04-07T20:06:40.596Z,6.90
2019-04-07T20:09:19.302Z,7.40
2019-04-07T20:12:16.347Z,7.40
2019-04-07T20:15:16.740Z,7.50
2019-04-07T20:18:24.461Z,7.50
2019-04-07T20:21:15.919Z,7.40
2019-04-07T20:24:01.399Z,7.60
2019-04-07T20:26:40.341Z,7.80
2019-04-07T20:29:21.299Z,7.40
2019-04-07T20:32:04.714Z,7.50
2019-04-07T20:35:12.297Z,7.30
2019-04-07T20:38:06.281Z,7.50
2019-04-07T20:41:05.358Z,7.60
2019-04-07T20:43:54.599Z,7.90
2019-04-07T20:46:56.848Z,7.50
2019-04-07T20:49:43.690Z,7.80
2019-04-07T20:52:26.702Z,7.80
2019-04-07T20:55:27.595Z,7.60
2019-04-07T20:58:22.531Z,7.90
2019-04-07T21:01:02.715Z,7.80
2019-04-07T21:03:55.711Z,7.60
2019-04-07T21:06:45.489Z,7.70
2019-04-07T21:09:35.923Z,7.80
2019-04-07T21:12:13.269Z,7.80
2019-04-07T21:15:21.050Z,7.90
2019-04-07T21:18:02.003Z,7.70
2019-04-07T21:20:48.898Z,7.80
2019-04-07T21:23:41.184Z,7.70
2019-04-07T21:26:30.882Z,7.60
2019-04-07T21:29:10.807Z,7.50
2019-04-07T21:31:57.347Z,7.30
2019-04-07T21:34:56.221Z,7.20
2019-04-07T21:37:47.731Z,7.10
2019-04-07T21:40:39.560Z,6.90
2019-04-07T21:43:27.185Z,6.80
2019-04-07T21:46:15.323Z,6.50
2019-04-07T21:49:13.954Z,6.30
2019-04-07T21:51:53.080Z,6.40
2019-04-07T21:54:30.752Z,6.00
2019-04-07T21:57:19.356Z,5.80
2019-04-07T22:00:01.502Z,5.80
2019-04-07T22:02:49.277Z,5.60
2019-04-07T22:05:27.109Z,5.60
2019-04-07T22:08:08.050Z,5.40
2019-04-07T22:10:36.000Z,5.40
2019-04-07T22:13:07.132Z,5.20
2019-04-07T22:15:48.282Z,5.20
2019-04-07T22:18:13.943Z,5.20
2019-04-07T22:20:47.924Z,5.20
2019-04-07T22:23:17.326Z,5.20
2019-04-07T22:25:54.000Z,5.10
2019-04-07T22:28:27.735Z,5.20
2019-04-07T22:30:55.851Z,5.30
2019-04-07T22:33:26.290Z,5.10
2019-04-07T22:35:57.578Z,5.10
2019-04-07T22:38:27.480Z,5.40
2019-04-07T22:40:56.874Z,5.10
2019-04-07T22:43:28.240Z,5.20
2019-04-07T22:46:07.261Z,5.10
2019-04-07T22:48:29.607Z,5.20
2019-04-07T22:51:02.559Z,5.10
2019-04-07T22:53:31.501Z,5.30
2019-04-07T22:56:04.767Z,4.80
2019-04-07T22:58:32.521Z,4.80
2019-04-07T23:01:04.773Z,4.80
2019-04-07T23:03:36.963Z,4.70
2019-04-07T23:06:12.907Z,5.00
2019-04-07T23:08:43.313Z,4.90
2019-04-07T23:11:14.069Z,4.60
2019-04-07T23:13:43.948Z,4.80
2019-04-07T23:16:16.049Z,4.70
2019-04-07T23:18:44.502Z,4.80
2019-04-07T23:21:14.978Z,4.80
2019-04-07T23:23:44.482Z,5.00
2019-04-07T23:26:13.921Z,4.70
2019-04-07T23:28:43.218Z,4.80
2019-04-07T23:31:13.837Z,4.70
2019-04-07T23:33:44.458Z,4.30
2019-04-07T23:36:13.825Z,4.20
2019-04-07T23:38:42.821Z,4.20
2019-04-07T23:41:20.116Z,4.20
2019-04-07T23:43:50.554Z,4.00
2019-04-07T23:46:24.718Z,4.00
2019-04-07T23:48:50.732Z,4.00
2019-04-07T23:51:20.673Z,4.20
2019-04-07T23:54:10.904Z,4.20
2019-04-07T23:56:41.734Z,4.20
2019-04-07T23:59:11.974Z,4.30
